Terminal Aerodrome Forecast
Issued by NWS

Home | Current Version | Previous Version | Text Only | Print | Product List | Glossary On
Versions: 1 2 3 4 5 6 7 8 9 10 11 12
000
FTUS41 KAKQ 221120
TAFPHF
TAF
KPHF 221120Z 2212/2312 22007KT P6SM SKC
     FM221600 25008KT P6SM SCT060
     FM230300 21005KT P6SM BKN250=

USA.gov is the U.S. government's official web portal to all federal, state and local government web resources and services.